Terminal Aerodrome Forecast
Issued by NWS Omaha/Valley, NE

Home | Current Version | Previous Version | Text Only | Print | Product List | Glossary On
Versions: 1 2 3 4 5 6 7 8 9 10 11 12 13 14 15 16 17 18 19 20 21 22 23 24 25 26 27 28 29 30 31 32
000
FTUS43 KOAX 231135
TAFLNK
TAF
KLNK 231135Z 2312/2412 03004KT 6SM HZ FEW250
     FM231500 36007KT P6SM SKC
     FM231800 35012G18KT P6SM SKC
     FM232300 02006KT P6SM SKC=

USA.gov is the U.S. government's official web portal to all federal, state and local government web resources and services.